createdAt,value
2023-11-09T00:02:26.450Z,11.00
2023-11-09T00:04:53.414Z,13.07
2023-11-09T00:07:20.641Z,10.90
2023-11-09T00:09:47.333Z,12.90
2023-11-09T00:12:14.059Z,10.88
2023-11-09T00:14:41.200Z,11.27
2023-11-09T00:17:08.025Z,9.90
2023-11-09T00:19:35.047Z,10.43
2023-11-09T00:22:01.774Z,15.23
2023-11-09T00:24:28.506Z,18.00
2023-11-09T00:26:55.385Z,11.50
2023-11-09T00:29:22.106Z,10.70
2023-11-09T00:31:48.929Z,11.23
2023-11-09T00:34:16.085Z,11.10
2023-11-09T00:36:43.693Z,13.40
2023-11-09T00:39:13.460Z,10.50
2023-11-09T00:41:42.813Z,11.63
2023-11-09T00:44:10.883Z,9.82
2023-11-09T00:46:37.629Z,10.68
2023-11-09T00:49:04.399Z,10.70
2023-11-09T00:51:31.715Z,9.63
2023-11-09T00:53:58.692Z,9.93
2023-11-09T00:56:25.655Z,9.35
2023-11-09T00:58:52.362Z,16.35
2023-11-09T01:01:19.123Z,18.17
2023-11-09T01:03:46.008Z,11.60
2023-11-09T01:06:12.794Z,9.63
2023-11-09T01:08:39.569Z,11.00
2023-11-09T01:11:07.419Z,10.43
2023-11-09T01:13:37.380Z,9.23
2023-11-09T01:16:04.847Z,9.88
2023-11-09T01:18:31.623Z,11.63
2023-11-09T01:20:58.564Z,10.57
2023-11-09T01:23:27.196Z,10.98
2023-11-09T01:25:53.873Z,11.80
2023-11-09T01:28:20.574Z,12.48
2023-11-09T01:30:48.247Z,12.03
2023-11-09T01:33:15.172Z,26.80
2023-11-09T01:35:42.015Z,13.15
2023-11-09T01:38:08.797Z,14.50
2023-11-09T01:40:37.506Z,11.25
2023-11-09T01:43:11.509Z,9.57
2023-11-09T01:45:38.311Z,12.80
2023-11-09T01:48:05.979Z,13.20
2023-11-09T01:50:33.235Z,10.27
2023-11-09T01:53:01.869Z,10.13
2023-11-09T01:55:31.038Z,12.23
2023-11-09T01:57:57.918Z,9.90
2023-11-09T02:00:24.652Z,11.45
2023-11-09T02:02:54.475Z,11.38
2023-11-09T02:05:23.342Z,8.95
2023-11-09T02:07:53.583Z,9.20
2023-11-09T02:10:20.546Z,9.02
2023-11-09T02:12:47.305Z,12.35
2023-11-09T02:15:14.114Z,13.10
2023-11-09T02:17:41.735Z,10.88
2023-11-09T02:20:10.518Z,15.13
2023-11-09T02:22:39.180Z,11.70
2023-11-09T02:25:07.286Z,12.88
2023-11-09T02:27:35.745Z,11.18
2023-11-09T02:30:02.498Z,12.48
2023-11-09T02:32:29.279Z,12.53
2023-11-09T02:34:57.588Z,13.27
2023-11-09T02:37:25.460Z,13.38
2023-11-09T02:39:55.956Z,13.57
2023-11-09T02:42:23.302Z,14.00
2023-11-09T02:44:50.718Z,15.53
2023-11-09T02:47:17.593Z,12.73
2023-11-09T02:49:44.371Z,12.82
2023-11-09T02:52:11.808Z,15.10
2023-11-09T02:54:38.671Z,12.85
2023-11-09T02:57:06.504Z,14.43
2023-11-09T02:59:33.226Z,12.90
2023-11-09T03:01:59.901Z,12.70
2023-11-09T03:04:26.604Z,12.60
2023-11-09T03:06:53.406Z,13.68
2023-11-09T03:09:20.899Z,13.90
2023-11-09T03:11:47.565Z,13.35
2023-11-09T03:14:14.476Z,13.88
2023-11-09T03:16:41.133Z,12.10
2023-11-09T03:19:09.173Z,14.90
2023-11-09T03:21:36.293Z,15.13
2023-11-09T03:24:03.067Z,14.35
2023-11-09T03:26:30.680Z,15.77
2023-11-09T03:28:57.905Z,13.90
2023-11-09T03:31:24.659Z,15.07
2023-11-09T03:33:51.390Z,13.20
2023-11-09T03:36:19.640Z,13.48
2023-11-09T03:38:46.942Z,35.70
2023-11-09T03:41:13.750Z,16.35
2023-11-09T03:43:41.437Z,18.13
2023-11-09T03:46:13.946Z,16.67
2023-11-09T03:48:40.916Z,16.25
2023-11-09T03:51:08.497Z,16.27
2023-11-09T03:53:35.233Z,17.55
2023-11-09T03:56:02.305Z,17.23
2023-11-09T03:58:29.057Z,18.13
2023-11-09T04:00:55.969Z,18.73
2023-11-09T04:03:22.857Z,16.60
2023-11-09T04:05:49.692Z,18.75
2023-11-09T04:08:16.425Z,18.17
2023-11-09T04:10:43.095Z,17.20
2023-11-09T04:13:09.763Z,18.20
2023-11-09T04:15:37.654Z,16.10
2023-11-09T04:18:04.357Z,16.50
2023-11-09T04:20:31.021Z,15.23
2023-11-09T04:22:57.688Z,15.93
2023-11-09T04:25:24.874Z,16.33
2023-11-09T04:27:52.135Z,17.25
2023-11-09T04:30:21.923Z,18.17
2023-11-09T04:32:52.543Z,18.30
2023-11-09T04:35:21.286Z,20.17
2023-11-09T04:37:50.702Z,19.58
2023-11-09T04:40:17.651Z,21.77
2023-11-09T04:42:48.110Z,48.45
2023-11-09T04:45:16.119Z,28.63
2023-11-09T04:47:43.285Z,25.60
2023-11-09T04:50:17.063Z,24.83
2023-11-09T04:52:53.360Z,23.52
2023-11-09T04:55:33.575Z,22.65
2023-11-09T04:58:21.628Z,23.80
2023-11-09T05:01:07.157Z,20.40
2023-11-09T05:03:52.057Z,22.95
2023-11-09T05:06:37.427Z,21.48
2023-11-09T05:09:04.219Z,23.13
2023-11-09T05:11:31.673Z,21.13
2023-11-09T05:13:59.950Z,21.20
2023-11-09T05:16:28.155Z,24.10
2023-11-09T05:18:54.881Z,35.28
2023-11-09T05:21:22.089Z,24.83
2023-11-09T05:23:48.837Z,30.33
2023-11-09T05:26:15.885Z,20.60
2023-11-09T05:28:42.541Z,35.90
2023-11-09T05:31:09.460Z,54.45
2023-11-09T05:33:38.472Z,43.90
2023-11-09T05:36:09.824Z,25.17
2023-11-09T05:38:37.026Z,20.40
2023-11-09T05:41:05.482Z,26.98
2023-11-09T05:43:32.265Z,20.83
2023-11-09T05:45:59.497Z,23.35
2023-11-09T05:48:26.464Z,21.83
2023-11-09T05:50:53.252Z,19.67
2023-11-09T05:53:19.944Z,20.00
2023-11-09T05:55:46.631Z,20.60
2023-11-09T05:58:13.982Z,23.73
2023-11-09T06:00:40.934Z,24.20
2023-11-09T06:03:07.684Z,19.88
2023-11-09T06:05:34.546Z,17.33
2023-11-09T06:08:01.671Z,20.08
2023-11-09T06:10:31.051Z,19.10
2023-11-09T06:12:58.096Z,20.52
2023-11-09T06:15:25.569Z,21.03
2023-11-09T06:17:53.458Z,18.80
2023-11-09T06:20:21.597Z,26.92
2023-11-09T06:22:49.801Z,44.83
2023-11-09T06:25:16.485Z,60.00
2023-11-09T06:27:43.185Z,79.23
2023-11-09T06:30:10.377Z,160.30
2023-11-09T06:32:37.404Z,84.45
2023-11-09T06:35:08.533Z,40.55
2023-11-09T06:37:35.428Z,33.00
2023-11-09T06:40:12.433Z,30.53
2023-11-09T06:42:40.470Z,15.45
2023-11-09T06:45:07.965Z,15.25
2023-11-09T06:47:36.481Z,16.40
2023-11-09T06:50:04.015Z,13.57
2023-11-09T06:52:30.927Z,14.90
2023-11-09T06:54:57.686Z,13.98
2023-11-09T06:57:24.444Z,16.08
2023-11-09T06:59:51.195Z,15.90
2023-11-09T07:02:18.749Z,18.10
2023-11-09T07:04:45.652Z,16.20
2023-11-09T07:07:12.514Z,17.48
2023-11-09T07:09:39.190Z,15.40
2023-11-09T07:12:06.471Z,15.20
2023-11-09T07:14:33.261Z,20.40
2023-11-09T07:16:59.973Z,14.77
2023-11-09T07:19:26.722Z,13.00
2023-11-09T07:21:54.520Z,12.48
2023-11-09T07:24:21.286Z,12.63
2023-11-09T07:26:48.732Z,12.40
2023-11-09T07:29:15.385Z,12.87
2023-11-09T07:31:42.228Z,12.75
2023-11-09T07:34:08.999Z,10.40
2023-11-09T07:36:35.740Z,10.40
2023-11-09T07:39:06.485Z,12.70
2023-11-09T07:41:33.732Z,13.13
2023-11-09T07:44:00.971Z,15.07
2023-11-09T07:46:28.126Z,16.92
2023-11-09T07:48:58.610Z,15.93
2023-11-09T07:51:25.380Z,15.07
2023-11-09T07:53:52.795Z,11.73
2023-11-09T07:56:19.479Z,9.50
2023-11-09T07:58:46.210Z,10.13
2023-11-09T08:01:13.009Z,10.70
2023-11-09T08:03:40.556Z,10.77
2023-11-09T08:06:08.578Z,11.50
2023-11-09T08:08:36.650Z,14.52
2023-11-09T08:11:03.606Z,10.20
2023-11-09T08:13:30.356Z,9.02
2023-11-09T08:15:59.996Z,7.07
2023-11-09T08:18:26.822Z,6.97
2023-11-09T08:20:53.934Z,4.70
2023-11-09T08:23:20.714Z,5.38
2023-11-09T08:25:47.431Z,4.70
2023-11-09T08:28:14.438Z,5.20
2023-11-09T08:30:41.244Z,3.87
2023-11-09T08:33:10.995Z,4.05
2023-11-09T08:35:39.092Z,3.78
2023-11-09T08:38:06.919Z,4.03
2023-11-09T08:40:34.074Z,3.60
2023-11-09T08:43:00.791Z,3.20
2023-11-09T08:45:30.781Z,3.30
2023-11-09T08:47:58.218Z,2.97
2023-11-09T08:50:26.244Z,3.10
2023-11-09T08:52:55.081Z,3.85
2023-11-09T08:55:22.006Z,5.37
2023-11-09T08:57:48.676Z,3.15
2023-11-09T09:00:17.623Z,3.72
2023-11-09T09:02:52.417Z,3.35
2023-11-09T09:05:20.789Z,2.80
2023-11-09T09:07:50.790Z,2.87
2023-11-09T09:10:22.286Z,3.33
2023-11-09T09:12:51.207Z,2.40
2023-11-09T09:15:19.282Z,2.63
2023-11-09T09:17:48.259Z,3.35
2023-11-09T09:20:21.280Z,2.50
2023-11-09T09:22:56.988Z,2.60
2023-11-09T09:25:24.959Z,2.22
2023-11-09T09:27:52.646Z,3.17
2023-11-09T09:30:22.746Z,3.67
2023-11-09T09:32:52.063Z,2.87
2023-11-09T09:35:29.916Z,4.25
2023-11-09T09:38:05.252Z,2.60
2023-11-09T09:40:40.562Z,2.70
2023-11-09T09:43:15.998Z,3.00
2023-11-09T09:45:43.042Z,3.03
2023-11-09T09:48:13.199Z,4.18
2023-11-09T09:50:40.604Z,4.90
2023-11-09T09:53:11.396Z,2.90
2023-11-09T09:55:41.018Z,3.92
2023-11-09T09:58:09.714Z,3.30
2023-11-09T10:00:38.131Z,3.38
2023-11-09T10:03:08.327Z,3.72
2023-11-09T10:05:37.797Z,5.45
2023-11-09T10:08:16.550Z,3.25
2023-11-09T10:10:48.984Z,3.07
2023-11-09T10:13:17.271Z,3.92
2023-11-09T10:15:45.331Z,2.53
2023-11-09T10:18:13.092Z,3.25
2023-11-09T10:20:41.514Z,3.70
2023-11-09T10:23:15.713Z,2.40
2023-11-09T10:25:43.241Z,3.60
2023-11-09T10:28:14.800Z,2.50
2023-11-09T10:30:45.802Z,1.90
2023-11-09T10:33:14.558Z,2.10
2023-11-09T10:35:42.899Z,2.17
2023-11-09T10:38:13.508Z,2.08
2023-11-09T10:41:14.287Z,3.00
2023-11-09T10:43:39.340Z,2.97
2023-11-09T10:46:10.545Z,2.50
2023-11-09T10:48:42.084Z,1.83
2023-11-09T10:51:11.144Z,3.08
2023-11-09T10:53:39.211Z,2.40
2023-11-09T10:56:12.046Z,1.80
2023-11-09T10:58:42.175Z,2.63
2023-11-09T11:01:12.113Z,2.83
2023-11-09T11:03:45.806Z,2.40
2023-11-09T11:06:18.212Z,2.45
2023-11-09T11:08:52.349Z,2.47
2023-11-09T11:11:25.723Z,2.33
2023-11-09T11:13:58.841Z,4.30
2023-11-09T11:16:43.425Z,2.17
2023-11-09T11:19:34.886Z,3.05
2023-11-09T11:22:20.388Z,1.98
2023-11-09T11:24:55.905Z,2.15
2023-11-09T11:27:56.657Z,1.87
2023-11-09T11:30:34.789Z,2.92
2023-11-09T11:33:05.880Z,2.35
2023-11-09T11:35:45.213Z,3.20
2023-11-09T11:38:14.756Z,2.40
2023-11-09T11:40:42.295Z,3.90
2023-11-09T11:43:09.484Z,3.65
2023-11-09T11:45:39.862Z,1.90
2023-11-09T11:48:13.801Z,2.40
2023-11-09T11:50:41.968Z,2.35
2023-11-09T11:53:13.859Z,3.07
2023-11-09T11:56:12.186Z,3.40
2023-11-09T11:58:53.525Z,3.70
2023-11-09T12:01:32.660Z,2.88
2023-11-09T12:04:04.934Z,3.50
2023-11-09T12:06:39.482Z,2.50
2023-11-09T12:09:12.002Z,3.80
2023-11-09T12:11:59.593Z,2.40
2023-11-09T12:14:26.384Z,2.15
2023-11-09T12:16:53.117Z,2.10
2023-11-09T12:19:20.125Z,2.40
2023-11-09T12:21:48.119Z,2.67
2023-11-09T12:24:24.218Z,3.22
2023-11-09T12:27:10.048Z,2.47
2023-11-09T12:29:39.090Z,4.60
2023-11-09T12:32:07.785Z,3.13
2023-11-09T12:34:38.312Z,2.55
2023-11-09T12:37:12.213Z,2.70
2023-11-09T12:39:40.769Z,2.92
2023-11-09T12:42:07.798Z,3.08
2023-11-09T12:44:36.617Z,4.27
2023-11-09T12:47:09.564Z,3.75
2023-11-09T12:49:36.623Z,4.28
2023-11-09T12:52:06.583Z,3.10
2023-11-09T12:54:37.057Z,5.32
2023-11-09T12:57:06.546Z,2.53
2023-11-09T12:59:35.273Z,3.35
2023-11-09T13:02:06.610Z,3.15
2023-11-09T13:04:43.404Z,2.55
2023-11-09T13:07:13.301Z,2.50
2023-11-09T13:09:42.899Z,2.57
2023-11-09T13:12:30.830Z,3.90
2023-11-09T13:15:10.888Z,2.38
2023-11-09T13:17:50.117Z,3.25
2023-11-09T13:20:37.963Z,2.60
2023-11-09T13:23:07.947Z,2.37
2023-11-09T13:25:44.482Z,3.47
2023-11-09T13:28:17.120Z,2.20
2023-11-09T13:30:53.554Z,2.30
2023-11-09T13:33:39.082Z,2.03
2023-11-09T13:36:18.101Z,2.63
2023-11-09T13:38:51.196Z,2.92
2023-11-09T13:41:19.637Z,2.35
2023-11-09T13:43:57.728Z,3.05
2023-11-09T13:46:29.417Z,2.83
2023-11-09T13:49:11.637Z,2.60
2023-11-09T13:51:38.622Z,4.25
2023-11-09T13:54:26.137Z,2.63
2023-11-09T13:57:13.186Z,3.20
2023-11-09T13:59:44.691Z,3.15
2023-11-09T14:02:18.626Z,3.20
2023-11-09T14:04:53.181Z,3.20
2023-11-09T14:07:33.296Z,3.22
2023-11-09T14:10:14.242Z,4.80
2023-11-09T14:12:51.029Z,3.95
2023-11-09T14:15:24.986Z,4.10
2023-11-09T14:17:53.480Z,4.03
2023-11-09T14:20:31.954Z,2.83
2023-11-09T14:23:06.511Z,3.03
2023-11-09T14:25:34.878Z,3.72
2023-11-09T14:28:03.375Z,2.80
2023-11-09T14:30:35.133Z,3.70
2023-11-09T14:33:03.960Z,3.80
2023-11-09T14:35:33.552Z,2.85
2023-11-09T14:38:05.440Z,3.55
2023-11-09T14:40:37.256Z,2.90
2023-11-09T14:43:10.481Z,3.17
2023-11-09T14:45:43.304Z,3.35
2023-11-09T14:48:14.195Z,2.90
2023-11-09T14:50:42.846Z,4.15
2023-11-09T14:53:13.353Z,3.47
2023-11-09T14:55:43.239Z,3.53
2023-11-09T14:58:15.447Z,3.65
2023-11-09T15:00:46.682Z,3.53
2023-11-09T15:03:20.370Z,4.00
2023-11-09T15:05:51.702Z,3.83
2023-11-09T15:08:19.589Z,4.03
2023-11-09T15:10:48.049Z,3.53
2023-11-09T15:13:14.825Z,3.67
2023-11-09T15:15:41.980Z,3.55
2023-11-09T15:18:11.019Z,3.10
2023-11-09T15:20:39.157Z,4.35
2023-11-09T15:23:07.130Z,3.65
2023-11-09T15:25:34.317Z,4.00
2023-11-09T15:28:02.606Z,3.22
2023-11-09T15:30:31.153Z,3.83
2023-11-09T15:32:59.566Z,4.43
2023-11-09T15:35:29.342Z,4.43
2023-11-09T15:37:58.668Z,5.25
2023-11-09T15:41:09.556Z,4.95
2023-11-09T15:43:13.103Z,3.13
2023-11-09T15:45:41.268Z,3.83
2023-11-09T15:48:09.286Z,3.47
2023-11-09T15:50:37.833Z,3.42
2023-11-09T15:53:05.393Z,2.95
2023-11-09T15:55:32.510Z,3.93
2023-11-09T15:58:03.838Z,4.03
2023-11-09T16:00:32.706Z,3.35
2023-11-09T16:02:59.723Z,3.60
2023-11-09T16:05:26.463Z,2.88
2023-11-09T16:07:54.795Z,4.03
2023-11-09T16:10:25.310Z,3.97
2023-11-09T16:12:53.084Z,4.53
2023-11-09T16:15:22.076Z,4.00
2023-11-09T16:17:50.756Z,4.07
2023-11-09T16:20:18.814Z,2.90
2023-11-09T16:22:46.619Z,6.40
2023-11-09T16:25:23.930Z,3.92
2023-11-09T16:27:51.809Z,5.05
2023-11-09T16:30:31.866Z,3.33
2023-11-09T16:33:02.464Z,3.70
2023-11-09T16:35:31.444Z,3.97
2023-11-09T16:37:59.062Z,3.70
2023-11-09T16:40:26.106Z,6.18
2023-11-09T16:42:53.285Z,4.90
2023-11-09T16:45:21.705Z,4.73
2023-11-09T16:47:49.517Z,4.78
2023-11-09T16:50:17.241Z,31.52
2023-11-09T16:52:44.133Z,19.08
2023-11-09T16:55:12.480Z,4.72
2023-11-09T16:57:46.382Z,6.17
2023-11-09T17:00:16.602Z,5.20
2023-11-09T17:02:43.724Z,6.75
2023-11-09T17:05:14.211Z,5.72
2023-11-09T17:07:44.555Z,6.93
2023-11-09T17:10:13.484Z,5.03
2023-11-09T17:12:40.911Z,11.55
2023-11-09T17:15:10.314Z,6.07
2023-11-09T17:17:44.369Z,18.58
2023-11-09T17:20:13.322Z,11.80
2023-11-09T17:22:44.599Z,4.90
2023-11-09T17:25:12.156Z,8.38
2023-11-09T17:27:38.984Z,6.22
2023-11-09T17:30:11.305Z,4.35
2023-11-09T17:32:40.386Z,4.88
2023-11-09T17:35:08.562Z,4.77
2023-11-09T17:37:35.599Z,6.13
2023-11-09T17:40:04.534Z,4.57
2023-11-09T17:42:31.456Z,7.10
2023-11-09T17:44:58.272Z,10.63
2023-11-09T17:47:25.368Z,4.60
2023-11-09T17:49:53.020Z,4.10
2023-11-09T17:52:20.513Z,4.50
2023-11-09T17:54:47.454Z,5.63
2023-11-09T17:57:14.833Z,4.15
2023-11-09T17:59:44.540Z,5.77
2023-11-09T18:02:12.942Z,4.80
2023-11-09T18:04:41.721Z,4.47
2023-11-09T18:07:09.086Z,5.22
2023-11-09T18:09:36.040Z,4.63
2023-11-09T18:12:03.708Z,4.63
2023-11-09T18:14:30.698Z,4.78
2023-11-09T18:16:58.209Z,5.65
2023-11-09T18:19:25.099Z,5.45
2023-11-09T18:21:54.164Z,4.78
2023-11-09T18:24:21.657Z,5.07
2023-11-09T18:26:48.326Z,4.93
2023-11-09T18:29:15.121Z,5.95
2023-11-09T18:31:41.937Z,5.75
2023-11-09T18:34:11.787Z,4.90
2023-11-09T18:36:38.644Z,5.17
2023-11-09T18:39:05.719Z,4.35
2023-11-09T18:41:32.386Z,5.00
2023-11-09T18:43:59.180Z,5.95
2023-11-09T18:46:26.270Z,6.05
2023-11-09T18:48:52.993Z,5.20
2023-11-09T18:51:19.934Z,6.25
2023-11-09T18:53:48.015Z,5.35
2023-11-09T18:56:16.381Z,6.95
2023-11-09T18:58:43.181Z,7.57
2023-11-09T19:01:12.159Z,8.27
2023-11-09T19:06:09.011Z,5.20
2023-11-09T19:08:37.236Z,5.45
2023-11-09T19:11:11.445Z,6.40
2023-11-09T19:13:38.987Z,5.53
2023-11-09T19:16:07.343Z,6.28
2023-11-09T19:18:35.194Z,6.95
2023-11-09T19:23:31.828Z,5.68
2023-11-09T19:25:59.211Z,5.10
2023-11-09T19:28:28.693Z,6.53
2023-11-09T19:30:59.540Z,6.57
2023-11-09T19:33:27.058Z,4.00
2023-11-09T19:35:54.568Z,4.88
2023-11-09T19:38:21.391Z,5.07
2023-11-09T19:40:48.784Z,7.32
2023-11-09T19:43:15.694Z,5.35
2023-11-09T19:45:44.466Z,5.85
2023-11-09T19:48:13.274Z,5.82
2023-11-09T19:50:41.289Z,6.20
2023-11-09T19:53:08.741Z,6.38
2023-11-09T19:55:37.040Z,7.07
2023-11-09T19:58:05.870Z,8.50
2023-11-09T20:00:36.402Z,7.18
2023-11-09T20:03:07.353Z,7.17
2023-11-09T20:05:38.034Z,6.22
2023-11-09T20:08:04.958Z,7.20
2023-11-09T20:10:32.070Z,7.35
2023-11-09T20:12:59.879Z,7.72
2023-11-09T20:15:28.982Z,8.70
2023-11-09T20:17:56.492Z,10.95
2023-11-09T20:20:23.529Z,8.82
2023-11-09T20:22:50.600Z,8.55
2023-11-09T20:25:18.063Z,8.23
2023-11-09T20:27:46.245Z,8.40
2023-11-09T20:30:15.492Z,10.10
2023-11-09T20:32:43.904Z,9.60
2023-11-09T20:35:11.978Z,8.55
2023-11-09T20:37:41.542Z,9.20
2023-11-09T20:40:09.935Z,9.87
2023-11-09T20:42:40.294Z,9.00
2023-11-09T20:45:09.832Z,9.98
2023-11-09T20:47:39.947Z,8.65
2023-11-09T20:50:15.338Z,12.52
2023-11-09T20:52:48.485Z,11.70
2023-11-09T20:55:22.537Z,13.45
2023-11-09T20:57:50.772Z,9.75
2023-11-09T21:00:22.829Z,9.57
2023-11-09T21:02:53.912Z,10.10
2023-11-09T21:05:22.912Z,10.93
2023-11-09T21:07:50.486Z,10.52
2023-11-09T21:10:18.653Z,9.95
2023-11-09T21:12:47.286Z,11.00
2023-11-09T21:15:14.308Z,14.93
2023-11-09T21:17:44.118Z,17.17
2023-11-09T21:20:13.568Z,12.13
2023-11-09T21:22:40.519Z,13.05
2023-11-09T21:25:08.340Z,13.30
2023-11-09T21:27:35.578Z,11.25
2023-11-09T21:30:02.628Z,12.77
2023-11-09T21:32:29.710Z,10.40
2023-11-09T21:34:56.677Z,11.95
2023-11-09T21:37:24.231Z,11.63
2023-11-09T21:39:50.993Z,13.63
2023-11-09T21:42:20.227Z,12.17
2023-11-09T21:44:49.451Z,9.48
2023-11-09T21:47:20.006Z,9.25
2023-11-09T21:49:46.903Z,9.13
2023-11-09T21:52:13.887Z,10.02
2023-11-09T21:54:43.848Z,12.47
2023-11-09T21:57:14.292Z,12.07
2023-11-09T21:59:41.470Z,13.10
2023-11-09T22:02:08.209Z,11.40
2023-11-09T22:04:38.161Z,11.43
2023-11-09T22:07:05.296Z,13.20
2023-11-09T22:09:34.739Z,13.32
2023-11-09T22:12:02.471Z,15.02
2023-11-09T22:14:29.533Z,14.13
2023-11-09T22:16:58.766Z,9.38
2023-11-09T22:19:25.835Z,9.77
2023-11-09T22:21:53.050Z,9.80
2023-11-09T22:24:19.945Z,11.02
2023-11-09T22:26:49.804Z,7.75
2023-11-09T22:29:16.637Z,8.68
2023-11-09T22:31:43.654Z,9.40
2023-11-09T22:34:10.653Z,8.15
2023-11-09T22:36:37.567Z,6.18
2023-11-09T22:39:06.548Z,6.40
2023-11-09T22:41:33.382Z,6.60
2023-11-09T22:44:00.503Z,5.50
2023-11-09T22:46:27.721Z,6.43
2023-11-09T22:48:54.509Z,6.20
2023-11-09T22:51:21.378Z,7.40
2023-11-09T22:53:48.934Z,8.68
2023-11-09T22:56:15.827Z,12.30
2023-11-09T22:58:42.740Z,7.40
2023-11-09T23:01:09.408Z,7.60
2023-11-09T23:03:36.405Z,6.25
2023-11-09T23:06:03.433Z,5.97
2023-11-09T23:08:35.275Z,6.27
2023-11-09T23:11:02.310Z,5.30
2023-11-09T23:13:29.646Z,6.63
2023-11-09T23:15:56.486Z,5.95
2023-11-09T23:18:23.252Z,6.10
2023-11-09T23:20:50.142Z,6.27
2023-11-09T23:23:16.868Z,5.35
2023-11-09T23:25:43.667Z,7.18
2023-11-09T23:28:12.265Z,7.68
2023-11-09T23:30:39.468Z,7.03
2023-11-09T23:33:06.322Z,5.20
2023-11-09T23:35:33.124Z,4.88
2023-11-09T23:37:59.856Z,6.03
2023-11-09T23:40:27.458Z,5.47
2023-11-09T23:42:54.755Z,4.50
2023-11-09T23:45:22.497Z,4.40
2023-11-09T23:47:49.682Z,5.53
2023-11-09T23:50:16.455Z,4.32
2023-11-09T23:52:45.295Z,4.05
2023-11-09T23:55:12.576Z,4.22
2023-11-09T23:57:39.718Z,4.00
